Time;durP1;ratioP1;P1;durP2;ratioP2;P2;SDS_P1;SDS_P2;PMS_P1;PMS_P2;Temp;Humidity;BMP_temperature;BMP_pressure;BME280_temperature;BME280_humidity;BME280_pressure;Samples;Min_cycle;Max_cycle;Signal;HPM_P1;HPM_P2
2022/10/11 00:01:35;;;;;;;15.60;7.20;;;;;;;7.95;89.67;100121.50;4154575;28;20378;-70
2022/10/11 00:04:01;;;;;;;21.27;8.07;;;;;;;7.80;90.10;100121.03;4159080;28;20860;-70
2022/10/11 00:06:28;;;;;;;16.60;6.97;;;;;;;7.87;89.91;100129.28;4163627;28;20359;-70
2022/10/11 00:08:54;;;;;;;18.90;7.60;;;;;;;7.82;90.33;100129.69;4156808;28;20234;-69
2022/10/11 00:11:21;;;;;;;16.00;7.50;;;;;;;7.80;90.50;100118.41;4189009;28;23245;-68
2022/10/11 00:13:47;;;;;;;17.23;7.57;;;;;;;7.76;90.12;100130.22;4150770;28;20242;-68
2022/10/11 00:16:14;;;;;;;23.53;7.83;;;;;;;7.69;90.90;100118.50;4158087;28;20241;-69
2022/10/11 00:18:41;;;;;;;20.80;7.70;;;;;;;7.71;91.01;100119.19;4151555;28;22008;-70
2022/10/11 00:21:10;;;;;;;17.57;7.00;;;;;;;7.73;91.20;100133.16;4154908;28;20252;-70
2022/10/11 00:23:37;;;;;;;17.00;7.73;;;;;;;7.63;91.14;100121.66;4154791;28;20254;-69
2022/10/11 00:26:06;;;;;;;15.70;7.30;;;;;;;7.84;91.01;100133.03;4155453;28;20246;-69
2022/10/11 00:28:34;;;;;;;15.97;7.03;;;;;;;7.76;90.77;100116.97;4157349;28;20341;-70
2022/10/11 00:31:01;;;;;;;20.73;7.60;;;;;;;7.80;90.48;100134.28;4152466;28;23101;-69
2022/10/11 00:33:28;;;;;;;16.40;6.77;;;;;;;7.76;90.24;100119.63;4141381;28;21753;-69
2022/10/11 00:35:55;;;;;;;18.43;7.30;;;;;;;7.77;90.88;100126.59;4153459;28;20325;-69
2022/10/11 00:38:22;;;;;;;18.33;6.63;;;;;;;7.75;90.09;100118.81;4148339;28;25434;-70
2022/10/11 00:40:48;;;;;;;18.07;7.47;;;;;;;7.70;90.64;100123.66;4157143;28;23219;-71
2022/10/11 00:43:20;;;;;;;22.37;7.90;;;;;;;7.64;90.93;100124.19;4162476;28;20240;-69
2022/10/11 00:46:01;;;;;;;17.27;7.57;;;;;;;7.54;91.29;100121.50;4150722;28;20234;-69
2022/10/11 00:48:38;;;;;;;17.13;6.73;;;;;;;7.61;91.67;100122.66;4157707;28;25627;-70
2022/10/11 00:51:16;;;;;;;15.47;7.17;;;;;;;7.64;91.44;100121.53;4171291;28;20243;-70
2022/10/11 00:53:42;;;;;;;17.47;6.90;;;;;;;7.63;91.14;100119.03;4151936;28;20342;-69
2022/10/11 00:56:16;;;;;;;20.47;7.20;;;;;;;7.64;91.00;100112.75;4150930;28;20235;-68
2022/10/11 00:58:42;;;;;;;17.40;7.73;;;;;;;7.73;90.90;100106.66;4149946;28;20265;-71
2022/10/11 01:01:09;;;;;;;22.17;7.53;;;;;;;7.70;90.89;100109.56;4159329;28;20239;-69
2022/10/11 01:03:37;;;;;;;17.00;7.73;;;;;;;7.69;91.56;100106.09;4159146;28;20245;-70
2022/10/11 01:06:04;;;;;;;20.10;7.70;;;;;;;7.75;91.01;100104.69;4159007;28;20716;-67
2022/10/11 01:08:31;;;;;;;20.77;7.60;;;;;;;7.76;91.02;100096.63;4164223;28;20238;-69
2022/10/11 01:10:58;;;;;;;29.30;8.87;;;;;;;7.70;90.98;100096.31;4155642;28;20233;-71
2022/10/11 01:13:44;;;;;;;19.17;8.17;;;;;;;7.68;91.16;100101.78;4154159;28;22196;-69
2022/10/11 01:16:14;;;;;;;15.83;7.30;;;;;;;7.76;91.28;100096.63;4164497;28;20241;-69
2022/10/11 01:18:50;;;;;;;18.17;7.43;;;;;;;7.69;91.02;100089.38;4150560;28;21158;-69
2022/10/11 01:21:47;;;;;;;17.93;7.93;;;;;;;7.68;91.62;100091.19;4159334;28;20359;-69
2022/10/11 01:24:21;;;;;;;17.57;7.67;;;;;;;7.73;91.82;100090.78;4161471;28;20241;-69
2022/10/11 01:27:13;;;;;;;16.90;8.23;;;;;;;7.83;91.23;100088.97;4159896;28;23105;-70
2022/10/11 01:29:58;;;;;;;21.90;8.00;;;;;;;7.83;91.19;100091.63;4158536;28;20227;-69
2022/10/11 01:32:34;;;;;;;18.10;8.07;;;;;;;7.87;91.07;100093.03;4167509;28;20251;-70
2022/10/11 01:35:09;;;;;;;17.07;7.40;;;;;;;7.95;90.61;100079.94;4156333;28;20275;-71
2022/10/11 01:37:38;;;;;;;16.90;8.13;;;;;;;7.84;90.61;100072.09;4152096;28;21253;-68
2022/10/11 01:40:28;;;;;;;21.27;7.97;;;;;;;7.94;91.23;100078.28;4156338;28;20612;-68
2022/10/11 01:42:56;;;;;;;16.10;7.50;;;;;;;7.96;90.89;100076.31;4160704;28;20314;-69
2022/10/11 01:45:23;;;;;;;15.03;7.70;;;;;;;7.97;90.75;100083.28;4141362;28;20335;-69
2022/10/11 01:48:01;;;;;;;18.37;8.20;;;;;;;7.88;90.94;100077.97;4156545;28;20246;-69
2022/10/11 01:50:42;;;;;;;14.70;7.53;;;;;;;7.86;91.32;100083.41;4156497;28;20246;-68
2022/10/11 01:53:22;;;;;;;23.33;8.17;;;;;;;7.84;91.54;100082.69;4178980;28;20248;-68
2022/10/11 01:55:52;;;;;;;16.30;7.63;;;;;;;7.82;91.55;100089.97;4140232;28;20325;-69
2022/10/11 01:58:28;;;;;;;20.67;8.33;;;;;;;7.87;91.13;100085.09;4144983;29;20228;-69
2022/10/11 02:01:06;;;;;;;16.97;7.77;;;;;;;7.77;91.64;100076.25;4143535;28;20243;-69
2022/10/11 02:03:59;;;;;;;17.13;8.13;;;;;;;7.86;91.56;100071.97;4150488;28;22273;-72
2022/10/11 02:06:35;;;;;;;23.53;7.73;;;;;;;7.89;91.66;100077.84;4128681;28;20311;-69
2022/10/11 02:09:20;;;;;;;18.37;7.70;;;;;;;7.89;91.36;100067.25;4159830;28;20688;-71
2022/10/11 02:11:46;;;;;;;19.87;9.03;;;;;;;7.87;91.74;100066.53;4147200;28;20245;-68
2022/10/11 02:14:19;;;;;;;23.77;9.20;;;;;;;7.80;92.21;100066.25;4147124;28;21937;-70
2022/10/11 02:16:50;;;;;;;20.30;8.73;;;;;;;7.85;91.93;100060.53;4141775;28;22249;-69
2022/10/11 02:19:18;;;;;;;21.83;8.03;;;;;;;7.87;92.25;100060.41;4146342;28;20717;-70
2022/10/11 02:21:51;;;;;;;18.20;8.13;;;;;;;7.80;92.58;100060.13;4148849;28;20247;-68
2022/10/11 02:24:23;;;;;;;20.30;7.60;;;;;;;7.93;92.06;100060.69;4147009;28;20238;-69
2022/10/11 02:26:53;;;;;;;21.70;8.47;;;;;;;7.94;92.03;100057.06;4149689;28;20239;-68
2022/10/11 02:29:22;;;;;;;20.43;8.33;;;;;;;7.92;92.42;100069.63;4142812;28;20316;-69
2022/10/11 02:31:49;;;;;;;19.37;7.47;;;;;;;7.93;92.29;100068.63;4158107;28;20424;-68
2022/10/11 02:34:22;;;;;;;19.17;9.10;;;;;;;7.95;92.66;100069.34;4145422;28;20857;-69
2022/10/11 02:37:00;;;;;;;18.90;8.80;;;;;;;7.87;92.43;100063.91;4163174;28;23621;-69
2022/10/11 02:39:36;;;;;;;19.20;8.77;;;;;;;7.96;92.63;100060.44;4147739;28;21541;-70
2022/10/11 02:42:05;;;;;;;23.53;8.63;;;;;;;8.06;92.41;100070.19;4127018;28;20261;-68
2022/10/11 02:44:36;;;;;;;20.03;8.00;;;;;;;7.96;92.81;100073.69;4155724;28;20241;-70
2022/10/11 02:47:03;;;;;;;24.43;8.30;;;;;;;7.85;93.07;100065.84;4142686;28;20410;-69
2022/10/11 02:49:30;;;;;;;27.60;9.90;;;;;;;7.97;92.87;100069.22;4160362;28;20285;-69
2022/10/11 02:51:57;;;;;;;31.83;9.27;;;;;;;7.94;93.22;100072.13;4148928;28;20367;-68
2022/10/11 02:54:25;;;;;;;15.53;8.37;;;;;;;7.96;93.56;100068.38;4166806;28;20389;-68
2022/10/11 02:56:51;;;;;;;20.57;7.87;;;;;;;7.87;93.64;100066.53;4160030;28;20481;-69
2022/10/11 02:59:18;;;;;;;17.53;8.90;;;;;;;7.74;95.10;100071.25;4165150;28;20293;-68
2022/10/11 03:01:44;;;;;;;23.10;8.70;;;;;;;7.87;95.21;100071.00;4165492;28;20584;-69
2022/10/11 03:04:11;;;;;;;18.53;9.40;;;;;;;7.87;95.00;100071.84;4173472;28;23700;-69
2022/10/11 03:06:37;;;;;;;18.10;9.07;;;;;;;7.89;94.58;100075.19;4168374;28;21785;-68
2022/10/11 03:09:04;;;;;;;22.37;9.17;;;;;;;8.07;94.41;100085.94;4177955;28;21698;-68
2022/10/11 03:11:30;;;;;;;23.43;9.30;;;;;;;8.02;94.66;100075.75;4157576;28;20238;-70
2022/10/11 03:13:57;;;;;;;22.47;9.50;;;;;;;7.93;95.04;100076.56;4167305;28;20238;-69
2022/10/11 03:16:23;;;;;;;21.57;9.53;;;;;;;7.95;95.36;100087.88;4175990;28;20298;-68
2022/10/11 03:18:50;;;;;;;21.83;9.40;;;;;;;7.97;95.48;100083.28;4168697;28;20309;-69
2022/10/11 03:21:17;;;;;;;23.90;9.20;;;;;;;8.04;95.65;100083.59;4165636;28;23603;-69
2022/10/11 03:23:43;;;;;;;22.67;9.23;;;;;;;8.15;94.86;100086.13;4158216;28;21218;-68
2022/10/11 03:26:10;;;;;;;25.37;10.43;;;;;;;8.13;95.28;100088.06;4171850;28;20242;-68
2022/10/11 03:28:36;;;;;;;20.57;9.17;;;;;;;8.24;95.28;100085.28;4173602;28;21755;-69
2022/10/11 03:31:03;;;;;;;21.73;9.50;;;;;;;8.31;95.37;100085.56;4158508;28;21132;-69
2022/10/11 03:33:30;;;;;;;24.07;9.63;;;;;;;8.24;95.32;100100.31;4168892;28;20819;-70
2022/10/11 03:35:56;;;;;;;28.47;9.87;;;;;;;8.24;95.92;100098.53;4176888;28;21528;-70
2022/10/11 03:38:23;;;;;;;18.17;8.77;;;;;;;8.32;96.33;100091.72;4174726;28;20344;-70
2022/10/11 03:40:49;;;;;;;24.27;10.63;;;;;;;8.31;96.27;100104.13;4168105;28;20248;-71
2022/10/11 03:43:16;;;;;;;19.77;9.57;;;;;;;8.34;96.77;100101.19;4169437;28;20253;-69
2022/10/11 03:45:42;;;;;;;23.90;10.27;;;;;;;8.37;97.53;100094.78;4170858;28;20441;-68
2022/10/11 03:48:09;;;;;;;20.60;9.23;;;;;;;8.35;97.42;100104.66;4153647;28;20314;-71
2022/10/11 03:50:36;;;;;;;20.97;9.67;;;;;;;8.36;97.92;100095.75;4175380;28;20273;-68
2022/10/11 03:53:04;;;;;;;23.63;9.87;;;;;;;8.39;98.45;100103.44;4166783;28;21669;-68
2022/10/11 03:55:30;;;;;;;21.17;9.30;;;;;;;8.45;98.15;100109.03;4174468;28;20625;-68
2022/10/11 03:57:57;;;;;;;22.57;10.53;;;;;;;8.41;98.53;100105.00;4157205;28;20239;-69
2022/10/11 04:00:24;;;;;;;20.40;10.17;;;;;;;8.42;98.61;100111.97;4167640;28;20374;-70
2022/10/11 04:02:51;;;;;;;28.07;10.27;;;;;;;8.38;99.08;100112.34;4162423;28;23288;-69
2022/10/11 04:05:18;;;;;;;23.87;11.17;;;;;;;8.46;99.24;100117.84;4175010;28;20274;-68
2022/10/11 04:07:44;;;;;;;27.50;11.03;;;;;;;8.36;99.12;100109.00;4171894;28;20292;-70
2022/10/11 04:10:10;;;;;;;24.37;10.77;;;;;;;8.43;99.74;100115.47;4158343;28;20241;-68
2022/10/11 04:12:38;;;;;;;21.83;11.27;;;;;;;8.45;99.90;100117.00;4167526;28;21803;-70
2022/10/11 04:15:05;;;;;;;23.63;12.17;;;;;;;8.45;100.00;100116.13;4171607;28;21274;-70
2022/10/11 04:17:32;;;;;;;22.90;11.07;;;;;;;8.41;99.62;100112.94;4158525;28;20236;-69
2022/10/11 04:19:58;;;;;;;24.27;11.40;;;;;;;8.44;99.66;100112.66;4162261;28;20270;-69
2022/10/11 04:22:25;;;;;;;27.40;11.17;;;;;;;8.38;100.00;100118.50;4169625;28;21321;-70
2022/10/11 04:24:51;;;;;;;26.90;11.07;;;;;;;8.41;100.00;100115.59;4170161;28;20243;-68
2022/10/11 04:27:18;;;;;;;29.53;11.77;;;;;;;8.34;100.00;100110.97;4174479;28;20242;-69
2022/10/11 04:29:44;;;;;;;31.27;11.63;;;;;;;8.35;100.00;100123.22;4153042;28;25352;-69
2022/10/11 04:32:10;;;;;;;22.67;10.97;;;;;;;8.40;100.00;100116.56;4174503;28;20335;-68
2022/10/11 04:34:37;;;;;;;33.00;12.17;;;;;;;8.34;100.00;100127.69;4171776;28;20302;-69
2022/10/11 04:37:04;;;;;;;28.10;12.60;;;;;;;8.26;100.00;100127.53;4160942;28;21435;-67
2022/10/11 04:39:30;;;;;;;27.40;12.83;;;;;;;8.17;100.00;100131.88;4166577;28;20250;-68
2022/10/11 04:41:57;;;;;;;23.37;11.67;;;;;;;8.14;100.00;100136.59;4167573;28;20242;-70
2022/10/11 04:44:23;;;;;;;26.00;12.60;;;;;;;8.03;100.00;100135.75;4157070;28;21453;-69
2022/10/11 04:46:50;;;;;;;27.23;12.33;;;;;;;7.99;100.00;100144.94;4169571;28;21679;-70
2022/10/11 04:49:16;;;;;;;26.50;12.40;;;;;;;8.18;100.00;100138.84;4169760;28;20242;-69
2022/10/11 04:51:43;;;;;;;24.90;11.90;;;;;;;8.15;100.00;100138.28;4154732;28;20402;-70
2022/10/11 04:54:09;;;;;;;34.00;12.30;;;;;;;8.07;100.00;100135.47;4150432;28;20315;-69
2022/10/11 04:56:36;;;;;;;29.30;12.27;;;;;;;8.06;100.00;100145.22;4145663;28;21924;-71
2022/10/11 04:59:03;;;;;;;22.67;11.70;;;;;;;8.00;100.00;100146.59;4129046;29;21204;-71
2022/10/11 05:01:29;;;;;;;23.13;11.83;;;;;;;8.01;100.00;100148.28;4145479;28;20243;-68
2022/10/11 05:03:56;;;;;;;27.90;13.37;;;;;;;7.91;100.00;100152.69;4153174;28;20426;-69
2022/10/11 05:06:22;;;;;;;23.80;12.40;;;;;;;7.98;100.00;100153.00;4156191;28;20702;-67
2022/10/11 05:08:49;;;;;;;26.50;13.37;;;;;;;7.96;100.00;100160.25;4150881;28;21977;-67
2022/10/11 05:11:16;;;;;;;30.67;12.97;;;;;;;7.90;100.00;100155.50;4166160;28;21234;-67
2022/10/11 05:13:43;;;;;;;29.13;13.47;;;;;;;7.88;100.00;100155.63;4160568;28;20603;-69
2022/10/11 05:16:09;;;;;;;33.87;13.37;;;;;;;7.90;100.00;100156.34;4148430;28;20318;-67
2022/10/11 05:18:38;;;;;;;30.40;13.10;;;;;;;7.94;100.00;100165.69;4152546;28;25006;-66
2022/10/11 05:21:24;;;;;;;27.33;13.13;;;;;;;8.00;100.00;100170.44;4143402;28;20350;-67
2022/10/11 05:23:52;;;;;;;30.20;13.23;;;;;;;8.00;100.00;100167.78;4136841;28;20239;-68
2022/10/11 05:26:19;;;;;;;29.73;13.33;;;;;;;7.95;100.00;100163.88;4158717;28;22423;-68
2022/10/11 05:28:47;;;;;;;27.27;14.37;;;;;;;7.95;100.00;100170.00;4161015;28;20294;-69
2022/10/11 05:31:15;;;;;;;31.07;14.40;;;;;;;7.94;100.00;100167.53;4175134;28;20349;-69
2022/10/11 05:33:42;;;;;;;31.03;14.80;;;;;;;7.97;100.00;100168.06;4155536;28;20334;-66
2022/10/11 05:36:08;;;;;;;32.60;14.97;;;;;;;7.98;100.00;100185.66;4163276;28;20246;-67
2022/10/11 05:38:35;;;;;;;34.17;15.20;;;;;;;7.94;100.00;100180.78;4156084;28;25669;-68
2022/10/11 05:41:03;;;;;;;29.87;14.40;;;;;;;7.85;100.00;100185.06;4167401;29;20591;-67
2022/10/11 05:43:30;;;;;;;36.80;14.77;;;;;;;7.88;100.00;100191.88;4139741;28;21806;-66
2022/10/11 05:45:57;;;;;;;29.33;15.80;;;;;;;7.99;100.00;100197.94;4174122;28;20360;-68
2022/10/11 05:48:25;;;;;;;37.37;16.53;;;;;;;7.96;100.00;100182.31;4162775;28;21080;-70
2022/10/11 05:50:52;;;;;;;32.40;15.27;;;;;;;7.99;100.00;100192.63;4157487;28;20338;-71
2022/10/11 05:53:18;;;;;;;28.77;14.77;;;;;;;7.98;100.00;100188.31;4160733;28;20948;-69
2022/10/11 05:55:45;;;;;;;32.87;16.80;;;;;;;8.01;100.00;100193.34;4159432;28;21766;-69
2022/10/11 05:58:13;;;;;;;31.03;16.17;;;;;;;8.16;100.00;100191.13;4159386;28;20248;-72
2022/10/11 06:00:40;;;;;;;31.47;16.13;;;;;;;8.30;100.00;100205.81;4159799;28;20318;-71
2022/10/11 06:03:09;;;;;;;36.10;16.70;;;;;;;8.38;100.00;100211.31;4149588;28;24315;-70
2022/10/11 06:05:36;;;;;;;34.03;16.07;;;;;;;8.33;100.00;100216.16;4136501;28;20243;-69
2022/10/11 06:08:04;;;;;;;27.50;16.27;;;;;;;8.52;100.00;100214.53;4177665;28;20238;-69
2022/10/11 06:10:31;;;;;;;31.83;15.50;;;;;;;8.60;100.00;100220.03;4157249;28;20685;-69
2022/10/11 06:12:58;;;;;;;35.47;16.77;;;;;;;8.70;100.00;100217.38;4132554;28;20240;-69
2022/10/11 06:15:24;;;;;;;35.47;16.40;;;;;;;8.76;100.00;100230.94;4139614;28;20242;-71
2022/10/11 06:17:51;;;;;;;34.93;16.97;;;;;;;8.86;100.00;100233.59;4158702;28;20231;-71
2022/10/11 06:20:18;;;;;;;29.43;15.83;;;;;;;8.91;100.00;100241.13;4137832;28;20284;-70
2022/10/11 06:22:44;;;;;;;32.03;16.97;;;;;;;9.09;100.00;100247.41;4144670;28;23685;-71
2022/10/11 06:25:11;;;;;;;31.00;16.40;;;;;;;9.22;100.00;100255.91;4145107;28;22001;-70
2022/10/11 06:27:37;;;;;;;33.40;17.27;;;;;;;9.43;100.00;100258.41;4135574;28;20283;-70
2022/10/11 06:30:04;;;;;;;36.43;16.83;;;;;;;9.55;100.00;100255.59;4147764;28;20236;-70
2022/10/11 06:32:31;;;;;;;28.93;16.07;;;;;;;9.67;100.00;100268.59;4150187;28;21631;-72
2022/10/11 06:34:57;;;;;;;36.90;16.20;;;;;;;9.77;100.00;100275.72;4165661;28;20227;-71
2022/10/11 06:37:24;;;;;;;38.33;16.73;;;;;;;9.89;100.00;100274.56;4144139;28;21636;-69
2022/10/11 06:39:50;;;;;;;30.07;15.37;;;;;;;10.00;100.00;100281.53;4151408;28;20244;-70
2022/10/11 06:42:17;;;;;;;33.13;15.93;;;;;;;10.19;100.00;100283.28;4145868;28;20246;-68
2022/10/11 06:44:43;;;;;;;31.60;15.63;;;;;;;10.23;100.00;100293.47;4155663;28;22075;-69
2022/10/11 06:47:11;;;;;;;29.70;16.20;;;;;;;10.35;100.00;100296.81;4162573;28;20250;-73
2022/10/11 06:49:37;;;;;;;29.90;15.83;;;;;;;10.45;100.00;100302.09;4149431;28;20253;-67
2022/10/11 06:52:11;;;;;;;30.50;15.37;;;;;;;10.64;100.00;100301.16;4156907;28;21775;-66
2022/10/11 06:54:37;;;;;;;31.13;14.30;;;;;;;10.87;99.29;100310.38;4170150;28;20593;-67
2022/10/11 06:57:11;;;;;;;29.97;14.57;;;;;;;10.96;99.54;100300.66;4165791;28;20247;-69
2022/10/11 06:59:37;;;;;;;31.83;15.43;;;;;;;11.09;98.06;100311.75;4179052;28;20266;-69
2022/10/11 07:02:04;;;;;;;29.90;13.87;;;;;;;11.09;97.52;100326.91;4176694;28;21262;-66
2022/10/11 07:04:32;;;;;;;26.40;13.67;;;;;;;11.10;97.95;100323.28;4170693;28;21623;-68
2022/10/11 07:06:59;;;;;;;28.57;15.50;;;;;;;11.10;97.81;100325.94;4172833;28;20293;-67
2022/10/11 07:09:25;;;;;;;32.10;14.63;;;;;;;11.13;97.87;100333.63;4188712;28;21591;-68
2022/10/11 07:11:52;;;;;;;28.23;15.00;;;;;;;11.17;97.76;100340.31;4176292;28;20236;-69
2022/10/11 07:14:18;;;;;;;27.00;13.20;;;;;;;11.23;97.78;100339.69;4180104;28;20238;-69
2022/10/11 07:16:44;;;;;;;30.27;13.57;;;;;;;11.18;98.12;100342.00;4171447;28;21798;-71
2022/10/11 07:19:11;;;;;;;25.77;12.67;;;;;;;11.25;97.32;100352.88;4183985;28;20244;-67
2022/10/11 07:21:38;;;;;;;25.73;14.47;;;;;;;11.26;97.14;100346.56;4165705;28;20299;-67
2022/10/11 07:24:05;;;;;;;31.67;14.60;;;;;;;11.18;97.22;100358.81;4183478;28;20237;-64
2022/10/11 07:26:32;;;;;;;27.73;14.23;;;;;;;11.47;97.34;100364.91;4189716;28;20238;-41
2022/10/11 07:29:08;;;;;;;27.17;13.57;;;;;;;12.16;92.61;100364.16;4211359;28;20237;-60
2022/10/11 07:31:36;;;;;;;30.07;14.47;;;;;;;12.04;91.74;100368.06;4192959;28;21605;-73
2022/10/11 07:34:03;;;;;;;23.53;13.27;;;;;;;11.96;92.38;100373.34;4170618;28;20227;-69
2022/10/11 07:36:30;;;;;;;24.03;12.53;;;;;;;12.54;89.86;100377.19;4204663;28;22002;-70
2022/10/11 07:38:57;;;;;;;28.87;13.50;;;;;;;12.58;89.17;100378.56;4191947;28;20238;-72
2022/10/11 07:41:23;;;;;;;24.40;13.43;;;;;;;12.38;89.65;100385.94;4199629;28;21061;-71
2022/10/11 07:43:50;;;;;;;29.53;13.73;;;;;;;12.16;90.62;100385.50;4193745;28;20422;-67
2022/10/11 07:46:17;;;;;;;29.63;13.80;;;;;;;12.13;90.96;100387.66;4182684;28;20249;-71
2022/10/11 07:48:44;;;;;;;27.33;12.87;;;;;;;12.30;91.21;100399.25;4173027;28;20235;-74
2022/10/11 07:51:16;;;;;;;21.97;11.93;;;;;;;12.49;89.50;100404.38;4164528;28;20311;-76
2022/10/11 07:53:44;;;;;;;24.53;12.07;;;;;;;12.39;89.44;100407.16;4169677;28;20644;-76
2022/10/11 07:56:13;;;;;;;23.67;12.57;;;;;;;11.97;91.49;100407.84;4196008;28;23161;-74
2022/10/11 07:58:41;;;;;;;21.43;11.77;;;;;;;11.79;93.01;100415.84;4159578;28;20238;-77
2022/10/11 08:01:08;;;;;;;24.47;12.43;;;;;;;11.77;92.96;100417.81;4171615;28;20318;-74
2022/10/11 08:03:35;;;;;;;23.40;12.03;;;;;;;11.86;93.67;100412.56;4172370;28;20722;-72
2022/10/11 08:06:05;;;;;;;26.50;13.07;;;;;;;11.77;93.96;100417.81;4153303;28;20283;-61
2022/10/11 08:08:32;;;;;;;29.73;13.03;;;;;;;11.71;93.47;100421.09;4168438;28;20363;-69
2022/10/11 08:10:59;;;;;;;23.57;12.27;;;;;;;11.71;93.44;100417.63;4162682;28;20239;-70
2022/10/11 08:13:25;;;;;;;26.43;12.13;;;;;;;11.77;94.38;100423.16;4164613;28;20372;-69
2022/10/11 08:15:52;;;;;;;25.97;12.50;;;;;;;11.71;94.11;100418.44;4158016;28;20408;-68
2022/10/11 08:18:20;;;;;;;23.30;11.47;;;;;;;11.80;93.87;100424.69;4173176;28;20239;-69
2022/10/11 08:20:46;;;;;;;26.40;12.43;;;;;;;11.92;93.35;100430.66;4183510;29;21234;-70
2022/10/11 08:23:15;;;;;;;21.87;11.83;;;;;;;11.91;92.98;100429.78;4148930;28;22159;-71
2022/10/11 08:25:43;;;;;;;20.33;11.77;;;;;;;12.01;93.08;100435.03;4158823;29;21259;-72
2022/10/11 08:28:15;;;;;;;25.37;11.57;;;;;;;12.05;92.75;100425.75;4149552;28;20246;-69
2022/10/11 08:30:47;;;;;;;20.70;10.40;;;;;;;12.41;91.05;100433.69;4151258;29;20266;-71
2022/10/11 08:33:14;;;;;;;23.07;10.33;;;;;;;12.83;88.60;100424.88;4183343;28;20412;-69
2022/10/11 08:35:40;;;;;;;21.57;9.93;;;;;;;13.67;84.26;100433.84;4173062;28;20230;-70
2022/10/11 08:38:07;;;;;;;18.30;8.90;;;;;;;14.21;81.68;100449.44;4195333;28;20248;-70
2022/10/11 08:40:34;;;;;;;18.50;8.67;;;;;;;14.97;75.43;100443.59;4179920;28;21801;-70
2022/10/11 08:43:06;;;;;;;22.70;9.83;;;;;;;14.61;77.07;100443.22;4166942;28;20231;-66
2022/10/11 08:45:38;;;;;;;21.53;9.07;;;;;;;14.13;78.08;100440.41;4168027;28;20481;-70
2022/10/11 08:48:22;;;;;;;18.60;9.30;;;;;;;13.50;81.75;100438.34;4154748;28;20285;-70
2022/10/11 08:50:51;;;;;;;17.10;8.83;;;;;;;13.34;83.16;100447.16;4159769;28;22831;-71
2022/10/11 08:53:27;;;;;;;16.50;8.63;;;;;;;13.33;82.84;100440.16;4173114;28;20417;-67
2022/10/11 08:55:54;;;;;;;17.87;8.93;;;;;;;13.73;81.03;100443.91;4167552;28;20234;-67
2022/10/11 08:58:27;;;;;;;24.37;8.53;;;;;;;14.01;80.15;100448.94;4181781;28;20721;-68
2022/10/11 09:00:55;;;;;;;16.83;7.90;;;;;;;14.09;78.93;100451.59;4171458;28;20259;-69
2022/10/11 09:03:38;;;;;;;16.07;7.87;;;;;;;13.91;79.52;100449.94;4193118;28;20235;-68
2022/10/11 09:06:20;;;;;;;14.47;7.97;;;;;;;14.05;79.28;100452.97;4172613;28;22177;-67
2022/10/11 09:09:08;;;;;;;15.37;7.47;;;;;;;13.59;80.41;100457.94;4167276;28;20230;-69
2022/10/11 09:11:38;;;;;;;16.23;7.53;;;;;;;13.59;81.08;100457.94;4192969;28;20243;-63
2022/10/11 09:14:22;;;;;;;15.47;7.63;;;;;;;13.51;82.20;100451.56;4176167;28;20609;-64
2022/10/11 09:17:04;;;;;;;14.90;7.40;;;;;;;13.46;82.88;100463.72;4161373;28;20242;-46
2022/10/11 09:19:36;;;;;;;22.53;7.93;;;;;;;13.32;83.05;100465.19;4170773;28;20230;-56
2022/10/11 09:22:09;;;;;;;14.73;7.63;;;;;;;13.00;84.24;100464.03;4161271;28;20384;-64
2022/10/11 09:24:56;;;;;;;14.27;7.37;;;;;;;13.01;83.85;100460.38;4174111;28;20640;-64
2022/10/11 09:27:57;;;;;;;15.33;7.53;;;;;;;12.68;85.35;100470.06;4197406;28;20254;-64
2022/10/11 09:31:06;;;;;;;12.17;7.07;;;;;;;12.56;85.62;100472.16;4161971;28;21815;-62
2022/10/11 09:33:39;;;;;;;14.47;7.23;;;;;;;12.77;84.06;100469.09;4171443;28;20239;-66
2022/10/11 09:36:30;;;;;;;12.73;6.90;;;;;;;12.97;84.15;100475.06;4178607;28;20245;-65
2022/10/11 09:39:23;;;;;;;14.83;6.70;;;;;;;13.19;82.79;100472.81;4172208;28;20281;-66
2022/10/11 09:41:57;;;;;;;14.17;6.57;;;;;;;13.24;82.59;100482.00;4163281;28;20793;-65
2022/10/11 09:44:28;;;;;;;12.33;6.03;;;;;;;13.03;83.64;100479.75;4168535;28;20241;-67
2022/10/11 09:46:56;;;;;;;14.27;6.40;;;;;;;13.17;83.76;100472.13;4181107;28;20389;-65
2022/10/11 09:49:54;;;;;;;11.63;5.70;;;;;;;12.95;83.04;100487.72;4191629;28;20909;-69
2022/10/11 09:52:21;;;;;;;21.00;7.00;;;;;;;12.86;83.76;100494.03;4147118;28;20496;-63
2022/10/11 09:54:55;;;;;;;13.17;6.23;;;;;;;13.03;84.26;100495.78;4170209;28;20236;-67
2022/10/11 09:57:30;;;;;;;9.03;4.70;;;;;;;12.99;81.64;100494.41;4188102;28;20230;-63
2022/10/11 10:00:12;;;;;;;14.43;4.40;;;;;;;12.83;81.72;100495.19;4151974;28;22738;-65
2022/10/11 10:02:50;;;;;;;10.27;3.97;;;;;;;12.97;81.33;100492.91;4154797;28;21241;-64
2022/10/11 10:05:22;;;;;;;9.70;3.97;;;;;;;12.94;79.85;100495.91;4150133;28;20358;-66
2022/10/11 10:08:09;;;;;;;13.60;3.93;;;;;;;13.34;79.29;100499.78;4183174;28;20258;-63
2022/10/11 10:10:38;;;;;;;7.30;3.33;;;;;;;13.59;77.63;100492.69;4191283;28;20316;-65
2022/10/11 10:13:20;;;;;;;15.47;3.77;;;;;;;13.80;77.05;100493.06;4151454;28;20560;-67
2022/10/11 10:15:50;;;;;;;9.97;3.60;;;;;;;14.01;75.91;100505.13;4167528;28;22843;-65
2022/10/11 10:18:22;;;;;;;6.90;2.60;;;;;;;14.14;73.16;100510.81;4169513;28;20238;-66
2022/10/11 10:20:51;;;;;;;6.47;3.03;;;;;;;14.42;72.94;100507.81;4154231;28;21837;-65
2022/10/11 10:23:21;;;;;;;9.93;3.20;;;;;;;14.45;71.87;100508.31;4165612;28;20648;-64
2022/10/11 10:25:50;;;;;;;7.57;2.93;;;;;;;14.26;72.45;100514.03;4156912;28;23119;-66
2022/10/11 10:28:23;;;;;;;6.50;2.70;;;;;;;13.91;72.55;100507.97;4168586;28;22593;-65
2022/10/11 10:30:57;;;;;;;13.17;3.33;;;;;;;14.03;74.79;100511.16;4173167;28;20234;-67
2022/10/11 10:33:26;;;;;;;12.97;3.07;;;;;;;14.57;72.51;100514.19;4184358;28;20286;-67
2022/10/11 10:35:57;;;;;;;7.90;2.90;;;;;;;14.76;69.31;100524.53;4169086;28;20508;-66
2022/10/11 10:38:25;;;;;;;5.37;2.03;;;;;;;14.70;67.00;100522.56;4185474;28;20243;-63
2022/10/11 10:40:56;;;;;;;8.73;2.30;;;;;;;14.53;67.29;100532.41;4160022;28;20728;-60
2022/10/11 10:43:30;;;;;;;7.93;2.30;;;;;;;14.10;67.90;100526.38;4178016;28;25065;-67
2022/10/11 10:46:24;;;;;;;6.73;2.33;;;;;;;13.89;68.52;100524.19;4158506;28;20605;-66
2022/10/11 10:49:10;;;;;;;5.40;2.33;;;;;;;13.62;70.02;100532.47;4175010;28;20537;-66
2022/10/11 10:52:15;;;;;;;7.90;2.20;;;;;;;13.55;71.20;100534.09;4156392;28;22480;-70
2022/10/11 10:54:50;;;;;;;8.43;2.70;;;;;;;13.52;71.29;100536.09;4162536;28;21439;-66
2022/10/11 10:57:22;;;;;;;6.27;1.80;;;;;;;13.21;70.94;100534.94;4178162;28;20274;-72
2022/10/11 10:59:59;;;;;;;7.90;2.30;;;;;;;13.13;70.22;100534.91;4166363;28;20248;-66
2022/10/11 11:02:43;;;;;;;4.50;2.20;;;;;;;13.22;70.13;100541.97;4183678;28;21177;-66
2022/10/11 11:05:19;;;;;;;6.47;2.33;;;;;;;13.30;68.64;100534.03;4189503;28;20249;-67
2022/10/11 11:07:52;;;;;;;10.53;2.10;;;;;;;13.46;67.06;100539.44;4177666;28;20294;-66
2022/10/11 11:10:28;;;;;;;5.23;2.20;;;;;;;13.55;68.21;100536.78;4162738;28;20305;-65
2022/10/11 11:13:22;;;;;;;10.37;2.60;;;;;;;13.86;66.61;100545.06;4166887;28;20346;-64
2022/10/11 11:16:07;;;;;;;7.77;2.23;;;;;;;13.98;65.31;100543.75;4160207;28;20376;-65
2022/10/11 11:18:58;;;;;;;7.13;2.00;;;;;;;14.18;62.86;100549.63;4177220;28;25523;-69
2022/10/11 11:21:36;;;;;;;11.83;2.13;;;;;;;14.14;63.65;100537.56;4188686;28;20245;-67
2022/10/11 11:24:37;;;;;;;5.73;1.93;;;;;;;14.19;63.37;100556.69;4157612;29;21991;-66
2022/10/11 11:27:11;;;;;;;5.27;1.73;;;;;;;14.10;63.39;100550.47;4183260;28;21301;-68
2022/10/11 11:29:42;;;;;;;6.63;1.70;;;;;;;14.17;60.86;100556.00;4173575;28;20284;-65
2022/10/11 11:32:27;;;;;;;6.77;1.60;;;;;;;14.24;57.89;100562.38;4167198;28;20254;-68
2022/10/11 11:35:01;;;;;;;6.37;1.50;;;;;;;14.22;57.38;100572.41;4139289;28;20238;-66